Time;durP1;ratioP1;P1;durP2;ratioP2;P2;SDS_P1;SDS_P2;PMS_P1;PMS_P2;Temp;Humidity;BMP_temperature;BMP_pressure;BME280_temperature;BME280_humidity;BME280_pressure;Samples;Min_cycle;Max_cycle;Signal;HPM_P1;HPM_P2
2022/12/16 00:01:37;;;;;;;7.10;1.67;;;;;;;16.23;69.53;95595.38;5111683;28;20035;-38
2022/12/16 00:04:02;;;;;;;9.63;2.08;;;;;;;16.29;69.52;95587.97;5111426;28;20056;-36
2022/12/16 00:06:32;;;;;;;4.70;1.00;;;;;;;16.34;69.30;95589.25;5111430;28;20035;-36
2022/12/16 00:08:59;;;;;;;5.38;1.15;;;;;;;16.28;69.33;95591.19;5111247;28;20430;-38
2022/12/16 00:11:25;;;;;;;6.18;1.17;;;;;;;16.27;69.45;95578.75;5114050;28;20038;-35
2022/12/16 00:13:51;;;;;;;6.15;1.38;;;;;;;16.22;69.81;95577.44;5115422;27;20020;-36
2022/12/16 00:16:18;;;;;;;4.90;1.30;;;;;;;16.27;69.44;95582.22;5115420;28;20016;-35
2022/12/16 00:18:45;;;;;;;7.50;1.45;;;;;;;16.21;69.56;95581.41;5115210;28;20055;-36
2022/12/16 00:21:11;;;;;;;3.10;1.00;;;;;;;16.23;69.54;95583.66;5115020;28;20460;-37
2022/12/16 00:23:38;;;;;;;6.47;1.13;;;;;;;16.27;69.29;95586.94;5115341;28;20036;-35
2022/12/16 00:26:04;;;;;;;6.15;1.50;;;;;;;16.23;69.37;95591.88;5115211;28;20027;-35
2022/12/16 00:28:30;;;;;;;5.55;1.20;;;;;;;16.25;69.20;95609.31;5115674;28;20368;-36
2022/12/16 00:30:56;;;;;;;7.00;1.35;;;;;;;16.26;69.22;95604.59;5113076;28;20027;-38
2022/12/16 00:33:23;;;;;;;7.15;1.33;;;;;;;16.20;69.25;95601.03;5112695;28;20023;-37
2022/12/16 00:35:49;;;;;;;4.63;1.15;;;;;;;16.23;69.27;95609.03;5113771;28;20019;-39
2022/12/16 00:38:15;;;;;;;3.72;0.82;;;;;;;16.25;69.22;95611.31;5115170;28;20035;-35
2022/12/16 00:40:40;;;;;;;6.25;1.50;;;;;;;16.26;69.16;95616.28;5114736;28;20039;-38
2022/12/16 00:43:06;;;;;;;4.53;1.10;;;;;;;16.26;69.06;95612.81;5114977;28;20032;-35
2022/12/16 00:45:31;;;;;;;7.05;1.33;;;;;;;16.27;69.00;95623.28;5114790;28;20399;-36
2022/12/16 00:47:57;;;;;;;5.85;1.40;;;;;;;16.22;68.96;95621.22;5114542;28;20055;-36
2022/12/16 00:50:23;;;;;;;5.35;1.20;;;;;;;16.22;69.04;95623.19;5114855;28;20105;-36
2022/12/16 00:52:50;;;;;;;5.20;1.05;;;;;;;16.24;68.79;95624.22;5114038;28;20023;-36
2022/12/16 00:55:19;;;;;;;4.40;1.30;;;;;;;16.29;68.67;95631.00;5114554;27;20024;-36
2022/12/16 00:57:44;;;;;;;6.50;1.17;;;;;;;16.28;68.48;95627.50;5111473;28;20027;-36
2022/12/16 01:00:12;;;;;;;4.90;1.05;;;;;;;16.24;68.76;95635.16;5101664;28;20107;-37
2022/12/16 01:02:39;;;;;;;4.40;1.38;;;;;;;16.28;68.58;95643.19;5093857;28;20051;-36
2022/12/16 01:05:05;;;;;;;3.20;0.90;;;;;;;16.27;68.66;95660.81;5093988;28;20101;-38
2022/12/16 01:07:31;;;;;;;4.05;1.00;;;;;;;16.26;68.71;95657.34;5093792;28;20483;-35
2022/12/16 01:09:56;;;;;;;3.55;0.95;;;;;;;16.27;68.56;95666.28;5093828;28;20024;-37
2022/12/16 01:12:22;;;;;;;4.45;1.33;;;;;;;16.28;68.35;95665.06;5093788;28;20105;-37
2022/12/16 01:14:48;;;;;;;3.35;0.93;;;;;;;16.26;68.48;95673.00;5093672;28;20028;-36
2022/12/16 01:17:14;;;;;;;3.78;1.30;;;;;;;16.24;68.38;95673.47;5096030;28;20060;-36
2022/12/16 01:19:40;;;;;;;3.03;1.02;;;;;;;16.25;68.43;95682.44;5093641;28;20028;-36
2022/12/16 01:22:05;;;;;;;4.43;1.48;;;;;;;16.27;68.44;95677.25;5092521;28;20491;-34
2022/12/16 01:24:31;;;;;;;3.83;0.90;;;;;;;16.17;68.53;95671.94;5093906;28;20020;-35
2022/12/16 01:26:56;;;;;;;3.70;0.80;;;;;;;16.25;68.27;95674.97;5093749;28;20031;-38
2022/12/16 01:29:22;;;;;;;4.38;1.00;;;;;;;16.23;68.35;95682.16;5093504;28;20709;-34
2022/12/16 01:31:47;;;;;;;4.28;1.05;;;;;;;16.19;68.36;95682.38;5104300;28;20169;-34
2022/12/16 01:34:13;;;;;;;2.45;0.77;;;;;;;16.19;68.37;95679.66;5111858;28;20523;-36
2022/12/16 01:36:38;;;;;;;4.82;0.90;;;;;;;16.19;68.28;95676.91;5114049;28;20027;-35
2022/12/16 01:39:04;;;;;;;6.22;1.10;;;;;;;16.22;68.09;95675.19;5113575;28;20019;-35
2022/12/16 01:41:30;;;;;;;5.15;1.40;;;;;;;16.27;67.97;95682.72;5113694;28;20023;-35
2022/12/16 01:44:33;;;;;;;3.58;0.80;;;;;;;16.22;68.12;95697.81;5113770;28;20026;-35
2022/12/16 01:47:02;;;;;;;;;;;;;;;16.15;68.38;95699.00;5033536;28;20539;-35
2022/12/16 01:49:30;;;;;;;4.80;1.33;;;;;;;16.20;68.33;95702.25;5033317;28;20426;-38
2022/12/16 01:52:01;;;;;;;3.78;1.15;;;;;;;16.21;68.28;95706.50;5033381;28;20041;-36
2022/12/16 01:54:41;;;;;;;3.65;0.77;;;;;;;16.20;68.09;95700.28;5033265;28;20624;-35
2022/12/16 01:57:12;;;;;;;6.75;1.23;;;;;;;16.21;68.05;95696.31;5033245;28;20033;-36
2022/12/16 01:59:43;;;;;;;2.70;0.82;;;;;;;16.15;68.06;95699.00;5033426;28;20040;-35
2022/12/16 02:02:09;;;;;;;4.50;1.15;;;;;;;16.25;67.69;95694.13;5033211;28;20037;-35
2022/12/16 02:05:19;;;;;;;6.43;1.10;;;;;;;16.22;68.10;95697.06;5032881;28;20048;-35
2022/12/16 02:07:20;;;;;;;4.97;1.17;;;;;;;16.20;67.98;95685.84;5032711;28;20156;-37
2022/12/16 02:09:46;;;;;;;4.10;1.20;;;;;;;16.15;68.04;95676.38;5032698;28;20120;-37
2022/12/16 02:12:24;;;;;;;4.57;1.10;;;;;;;16.13;68.26;95679.59;5032818;28;20167;-35
2022/12/16 02:14:53;;;;;;;4.40;1.02;;;;;;;16.10;68.15;95658.66;5032602;28;20022;-36
2022/12/16 02:17:44;;;;;;;5.25;1.30;;;;;;;16.10;68.30;95664.13;5059981;28;20089;-35
2022/12/16 02:20:09;;;;;;;4.63;1.08;;;;;;;16.19;67.69;95646.81;5115392;28;20099;-35
2022/12/16 02:23:08;;;;;;;5.10;0.90;;;;;;;16.14;68.03;95653.72;5115237;28;20448;-36
2022/12/16 02:26:10;;;;;;;5.07;1.25;;;;;;;15.99;68.67;95658.53;5115479;28;20089;-35
2022/12/16 02:28:47;;;;;;;4.15;0.80;;;;;;;16.07;68.22;95656.88;5114903;28;20027;-35
2022/12/16 02:31:18;;;;;;;4.00;1.10;;;;;;;16.12;68.14;95658.16;5115047;28;20031;-36
2022/12/16 02:33:53;;;;;;;3.55;0.90;;;;;;;16.11;68.03;95662.88;5114720;28;20081;-35
2022/12/16 02:36:55;;;;;;;3.58;0.88;;;;;;;16.10;68.00;95669.59;5115015;28;20028;-37
2022/12/16 02:39:45;;;;;;;4.47;0.80;;;;;;;16.03;68.27;95667.28;5114859;28;20076;-36
2022/12/16 02:42:25;;;;;;;1.67;0.70;;;;;;;16.05;68.17;95662.09;5114722;28;20464;-35
2022/12/16 02:45:04;;;;;;;3.78;1.13;;;;;;;16.09;67.78;95659.88;5114778;28;20023;-36
2022/12/16 02:47:31;;;;;;;2.60;0.80;;;;;;;16.08;67.59;95654.88;5114998;28;20058;-35
2022/12/16 02:49:58;;;;;;;3.72;0.65;;;;;;;16.07;67.75;95659.59;5114683;28;20429;-35
2022/12/16 02:52:27;;;;;;;3.47;0.70;;;;;;;16.11;67.61;95664.88;5114510;28;20391;-35
2022/12/16 02:54:56;;;;;;;4.68;0.73;;;;;;;16.00;68.16;95662.03;5114372;28;20107;-36
2022/12/16 02:57:35;;;;;;;5.40;0.90;;;;;;;16.09;67.53;95662.63;5114621;28;20063;-36
2022/12/16 03:00:03;;;;;;;2.90;1.00;;;;;;;15.99;68.03;95663.25;5114769;28;20345;-35
2022/12/16 03:02:47;;;;;;;3.05;0.80;;;;;;;16.04;67.58;95678.97;5114659;28;20019;-35
2022/12/16 03:05:21;;;;;;;3.83;0.70;;;;;;;16.05;67.56;95678.50;5114509;28;20035;-36
2022/12/16 03:07:50;;;;;;;5.03;0.90;;;;;;;15.95;68.12;95679.13;5109262;28;20020;-35
2022/12/16 03:10:20;;;;;;;4.18;0.90;;;;;;;16.01;67.90;95683.41;5093939;28;20024;-35
2022/12/16 03:12:46;;;;;;;2.75;0.70;;;;;;;15.99;68.11;95691.34;5093757;28;20471;-35
2022/12/16 03:15:15;;;;;;;4.85;1.33;;;;;;;15.97;68.10;95693.06;5094064;28;20020;-37
2022/12/16 03:17:45;;;;;;;3.22;0.90;;;;;;;16.01;67.66;95691.63;5093872;28;20024;-36
2022/12/16 03:20:17;;;;;;;4.95;1.20;;;;;;;15.99;67.76;95691.34;5093813;28;20102;-37
2022/12/16 03:22:47;;;;;;;3.25;0.68;;;;;;;16.00;67.65;95698.31;5094017;28;20364;-36
2022/12/16 03:25:13;;;;;;;4.65;0.80;;;;;;;15.98;67.95;95697.28;5093764;28;20111;-35
2022/12/16 03:27:52;;;;;;;3.88;0.77;;;;;;;16.12;66.96;95689.00;5093839;28;20031;-36
2022/12/16 03:30:26;;;;;;;2.72;0.50;;;;;;;16.07;67.15;95686.22;5093748;28;20031;-36
2022/12/16 03:32:58;;;;;;;2.85;0.63;;;;;;;16.11;67.09;95679.31;5093992;28;20020;-36
2022/12/16 03:35:34;;;;;;;2.67;0.60;;;;;;;15.94;67.84;95678.38;5093643;28;20040;-35
2022/12/16 03:38:03;;;;;;;2.65;0.65;;;;;;;15.99;67.61;95676.91;5093830;28;20027;-36
2022/12/16 03:40:30;;;;;;;6.50;0.70;;;;;;;16.00;67.45;95670.97;5104860;28;20088;-35
2022/12/16 03:42:56;;;;;;;3.42;0.70;;;;;;;15.98;67.43;95676.16;5114068;28;20024;-35
2022/12/16 03:45:27;;;;;;;3.40;0.60;;;;;;;15.97;67.31;95677.41;5111697;28;20031;-36
2022/12/16 03:47:56;;;;;;;3.60;0.52;;;;;;;16.02;67.12;95665.78;5116834;28;20049;-36
2022/12/16 03:50:28;;;;;;;2.33;0.52;;;;;;;15.95;67.42;95663.44;5118154;28;20055;-35
2022/12/16 03:52:54;;;;;;;2.28;0.95;;;;;;;15.98;67.26;95672.69;5118247;28;20480;-35
2022/12/16 03:55:19;;;;;;;3.53;0.70;;;;;;;16.02;67.26;95662.28;5118078;28;20062;-35
2022/12/16 03:57:45;;;;;;;4.80;1.00;;;;;;;16.00;67.17;95653.81;5117999;28;20471;-36
2022/12/16 04:00:11;;;;;;;3.28;0.80;;;;;;;15.93;67.24;95644.06;5117858;28;20418;-37
2022/12/16 04:02:36;;;;;;;5.68;1.10;;;;;;;15.99;67.17;95653.06;5118050;28;20055;-37
2022/12/16 04:05:02;;;;;;;4.13;0.60;;;;;;;15.99;67.05;95642.13;5118003;28;20042;-35
2022/12/16 04:07:28;;;;;;;2.80;0.68;;;;;;;15.92;67.38;95648.03;5117498;28;20023;-36
2022/12/16 04:09:53;;;;;;;3.17;0.82;;;;;;;15.98;67.02;95643.34;5117717;28;20027;-35
2022/12/16 04:27:23;;;;;;;3.92;0.70;;;;;;;15.97;67.02;95649.28;5074833;28;20040;-35
2022/12/16 04:29:16;;;;;;;3.55;0.75;;;;;;;15.92;67.09;95653.50;5074591;28;20098;-36
2022/12/16 04:31:41;;;;;;;2.75;0.80;;;;;;;15.85;67.41;95662.09;5074901;28;20461;-39
2022/12/16 04:34:25;;;;;;;2.97;0.73;;;;;;;15.92;66.99;95656.22;5074536;28;20377;-36
